createdAt,value
2023-09-13T00:03:45.568Z,9.47
2023-09-13T00:08:48.514Z,9.42
2023-09-13T00:13:51.340Z,9.36
2023-09-13T00:18:54.078Z,9.45
2023-09-13T00:23:56.730Z,9.31
2023-09-13T00:28:59.394Z,9.22
2023-09-13T00:34:02.776Z,9.03
2023-09-13T00:39:06.927Z,9.07
2023-09-13T00:44:09.627Z,9.02
2023-09-13T00:49:12.393Z,9.25
2023-09-13T00:54:15.382Z,9.41
2023-09-13T00:59:20.112Z,9.53
2023-09-13T01:04:23.251Z,9.33
2023-09-13T01:09:28.015Z,9.25
2023-09-13T01:14:30.692Z,9.18
2023-09-13T01:20:08.217Z,9.07
2023-09-13T01:25:18.946Z,8.89
2023-09-13T01:30:23.766Z,8.84
2023-09-13T01:35:26.580Z,8.88
2023-09-13T01:40:34.129Z,8.82
2023-09-13T01:45:38.445Z,8.77
2023-09-13T01:50:41.979Z,8.74
2023-09-13T01:55:45.017Z,8.56
2023-09-13T02:00:48.128Z,8.61
2023-09-13T02:05:51.086Z,8.46
2023-09-13T02:10:54.076Z,8.41
2023-09-13T02:15:56.876Z,8.41
2023-09-13T02:20:59.801Z,8.40
2023-09-13T02:26:02.588Z,8.47
2023-09-13T02:31:05.664Z,8.43
2023-09-13T02:36:08.822Z,8.35
2023-09-13T02:41:12.165Z,8.27
2023-09-13T02:46:15.007Z,8.38
2023-09-13T02:51:17.922Z,8.46
2023-09-13T02:56:20.778Z,8.54
2023-09-13T03:01:23.809Z,8.63
2023-09-13T03:06:26.660Z,8.72
2023-09-13T03:11:31.036Z,8.88
2023-09-13T03:16:34.163Z,8.99
2023-09-13T03:21:38.020Z,9.16
2023-09-13T03:26:41.000Z,9.39
2023-09-13T03:31:44.608Z,9.59
2023-09-13T03:36:51.192Z,9.69
2023-09-13T03:41:54.545Z,9.84
2023-09-13T03:46:58.238Z,10.05
2023-09-13T03:52:02.826Z,10.18
2023-09-13T03:57:07.044Z,10.40
2023-09-13T04:02:10.177Z,10.58
2023-09-13T04:07:13.235Z,10.75
2023-09-13T04:12:16.120Z,10.87
2023-09-13T04:17:19.852Z,11.04
2023-09-13T04:22:22.966Z,11.10
2023-09-13T04:27:26.432Z,11.44
2023-09-13T04:32:30.306Z,11.72
2023-09-13T04:37:34.377Z,11.92
2023-09-13T04:42:51.356Z,12.30
2023-09-13T04:47:55.033Z,12.54
2023-09-13T04:52:57.725Z,12.87
2023-09-13T04:58:00.957Z,13.17
2023-09-13T05:03:04.042Z,13.49
2023-09-13T05:08:06.892Z,13.75
2023-09-13T05:13:10.229Z,14.01
2023-09-13T05:18:13.236Z,14.18
2023-09-13T05:23:15.905Z,14.26
2023-09-13T05:28:18.570Z,14.43
2023-09-13T05:33:21.438Z,14.68
2023-09-13T05:38:24.810Z,14.79
2023-09-13T05:43:30.449Z,15.11
2023-09-13T05:48:34.178Z,15.25
2023-09-13T05:53:37.016Z,15.36
2023-09-13T05:58:44.774Z,15.57
2023-09-13T06:03:48.153Z,15.89
2023-09-13T06:08:50.968Z,16.05
2023-09-13T06:13:53.688Z,16.32
2023-09-13T06:18:56.452Z,16.38
2023-09-13T06:23:59.168Z,16.63
2023-09-13T06:29:03.446Z,16.81
2023-09-13T06:34:21.986Z,16.95
2023-09-13T06:39:28.324Z,17.02
2023-09-13T06:44:45.495Z,17.19
2023-09-13T06:49:51.861Z,17.36
2023-09-13T06:54:56.058Z,17.54
2023-09-13T07:00:04.530Z,17.67
2023-09-13T07:10:14.158Z,17.86
2023-09-13T07:34:52.432Z,18.52
2023-09-13T07:39:55.389Z,18.47
2023-09-13T07:44:58.194Z,18.64
2023-09-13T07:50:01.713Z,18.71
2023-09-13T07:55:06.486Z,18.79
2023-09-13T08:00:09.750Z,18.88
2023-09-13T08:05:14.938Z,19.07
2023-09-13T08:10:17.708Z,19.26
2023-09-13T08:15:30.863Z,19.50
2023-09-13T08:20:41.678Z,19.49
2023-09-13T08:25:45.526Z,19.61
2023-09-13T08:30:50.509Z,19.76
2023-09-13T08:35:53.212Z,19.65
2023-09-13T08:40:56.309Z,19.94
2023-09-13T08:46:01.486Z,19.95
2023-09-13T08:51:05.362Z,20.08
2023-09-13T08:56:10.236Z,19.94
2023-09-13T09:01:14.816Z,20.09
2023-09-13T09:06:19.389Z,20.23
2023-09-13T09:11:27.104Z,20.24
2023-09-13T09:16:32.363Z,20.28
2023-09-13T09:21:39.272Z,20.32
2023-09-13T09:26:41.887Z,20.10
2023-09-13T09:31:44.623Z,20.23
2023-09-13T09:36:48.312Z,20.15
2023-09-13T09:41:59.549Z,20.00
2023-09-13T09:47:02.256Z,20.07
2023-09-13T09:52:05.934Z,20.26
2023-09-13T09:57:09.584Z,20.28
2023-09-13T10:02:12.360Z,20.21
2023-09-13T10:07:15.256Z,20.25
2023-09-13T10:12:17.936Z,20.44
2023-09-13T10:17:21.690Z,20.47
2023-09-13T10:22:26.800Z,20.39
2023-09-13T10:27:30.897Z,20.68
2023-09-13T10:32:44.094Z,20.82
2023-09-13T10:38:25.917Z,20.69
2023-09-13T10:43:29.186Z,20.64
2023-09-13T10:48:32.739Z,20.55
2023-09-13T10:53:36.464Z,20.38
2023-09-13T10:58:40.540Z,20.18
2023-09-13T11:03:43.971Z,20.29
2023-09-13T11:08:47.433Z,20.54
2023-09-13T11:13:53.900Z,20.63
2023-09-13T11:18:58.552Z,20.55
2023-09-13T11:24:04.662Z,20.45
2023-09-13T11:29:28.886Z,20.33
2023-09-13T11:34:35.972Z,20.34
2023-09-13T11:39:40.061Z,20.78
2023-09-13T11:44:59.090Z,21.09
2023-09-13T11:55:27.083Z,21.69
2023-09-13T12:05:54.059Z,21.51
2023-09-13T12:11:12.853Z,21.39
2023-09-13T12:16:18.973Z,21.29
2023-09-13T12:21:22.019Z,21.33
2023-09-13T12:26:27.461Z,21.15
2023-09-13T12:31:30.060Z,21.37
2023-09-13T12:36:33.658Z,21.48
2023-09-13T12:41:36.410Z,21.16
2023-09-13T12:46:41.207Z,20.94
2023-09-13T12:51:44.340Z,20.91
2023-09-13T12:56:47.008Z,20.70
2023-09-13T13:01:55.911Z,20.40
2023-09-13T13:07:01.157Z,19.99
2023-09-13T13:12:04.267Z,19.87
2023-09-13T13:17:07.012Z,19.79
2023-09-13T13:22:13.245Z,19.78
2023-09-13T13:27:16.038Z,19.68
2023-09-13T13:32:19.060Z,19.57
2023-09-13T13:37:21.657Z,19.51
2023-09-13T13:42:24.368Z,19.49
2023-09-13T13:47:27.132Z,19.51
2023-09-13T13:52:29.852Z,19.48
2023-09-13T13:57:43.489Z,19.33
2023-09-13T14:02:47.869Z,19.25
2023-09-13T14:07:50.920Z,19.24
2023-09-13T14:12:57.573Z,19.21
2023-09-13T14:18:00.402Z,19.18
2023-09-13T14:23:04.310Z,18.98
2023-09-13T14:28:10.709Z,18.81
2023-09-13T14:33:18.140Z,18.69
2023-09-13T14:38:22.214Z,18.49
2023-09-13T14:43:25.066Z,18.37
2023-09-13T14:48:28.021Z,18.39
2023-09-13T14:53:31.018Z,18.34
2023-09-13T14:58:36.475Z,18.21
2023-09-13T15:03:39.670Z,18.07
2023-09-13T15:08:42.525Z,17.95
2023-09-13T15:13:47.269Z,17.80
2023-09-13T15:18:51.180Z,17.63
2023-09-13T15:23:54.076Z,17.45
2023-09-13T15:28:57.883Z,17.24
2023-09-13T15:34:02.398Z,17.07
2023-09-13T15:39:05.998Z,16.83
2023-09-13T15:44:08.684Z,16.50
2023-09-13T15:49:11.548Z,16.27
2023-09-13T15:54:14.833Z,16.07
2023-09-13T15:59:17.515Z,15.85
2023-09-13T16:04:20.435Z,15.70
2023-09-13T16:09:23.227Z,15.62
2023-09-13T16:14:34.457Z,15.49
2023-09-13T16:19:37.409Z,15.32
2023-09-13T16:24:40.168Z,15.11
2023-09-13T16:29:42.905Z,14.95
2023-09-13T16:34:45.682Z,14.66
2023-09-13T16:39:48.408Z,14.37
2023-09-13T16:44:51.092Z,14.21
2023-09-13T16:49:53.806Z,14.19
2023-09-13T16:54:59.412Z,13.98
2023-09-13T17:00:03.048Z,13.70
2023-09-13T17:05:08.115Z,13.53
2023-09-13T17:10:10.936Z,13.53
2023-09-13T17:15:13.639Z,13.42
2023-09-13T17:20:16.592Z,13.43
2023-09-13T17:25:19.339Z,13.43
2023-09-13T17:30:22.211Z,13.43
2023-09-13T17:35:25.161Z,13.40
2023-09-13T17:40:28.659Z,13.26
2023-09-13T17:45:31.726Z,13.25
2023-09-13T17:50:35.277Z,13.14
2023-09-13T17:55:38.014Z,13.05
2023-09-13T18:00:40.963Z,13.04
2023-09-13T18:05:45.321Z,12.92
2023-09-13T18:10:48.126Z,12.78
2023-09-13T18:15:50.967Z,12.60
2023-09-13T18:20:54.183Z,12.47
2023-09-13T18:25:57.097Z,12.44
2023-09-13T18:31:07.699Z,12.37
2023-09-13T18:36:10.600Z,12.38
2023-09-13T18:41:13.344Z,12.33
2023-09-13T18:46:16.362Z,12.24
2023-09-13T18:51:19.305Z,12.30
2023-09-13T18:56:21.968Z,12.35
2023-09-13T19:01:24.748Z,12.22
2023-09-13T19:06:27.640Z,12.10
2023-09-13T19:11:30.417Z,12.11
2023-09-13T19:16:34.698Z,11.90
2023-09-13T19:21:37.982Z,11.72
2023-09-13T19:26:42.171Z,11.72
2023-09-13T19:31:45.619Z,11.71
2023-09-13T19:36:48.396Z,11.73
2023-09-13T19:41:51.414Z,11.56
2023-09-13T19:46:54.175Z,11.39
2023-09-13T19:51:57.004Z,11.21
2023-09-13T19:57:01.756Z,11.16
2023-09-13T20:02:07.112Z,11.15
2023-09-13T20:07:11.389Z,11.16
2023-09-13T20:12:14.029Z,11.28
2023-09-13T20:17:16.719Z,11.31
2023-09-13T20:22:19.363Z,11.24
2023-09-13T20:27:22.029Z,11.07
2023-09-13T20:32:24.674Z,10.93
2023-09-13T20:37:28.263Z,10.91
2023-09-13T20:42:31.089Z,10.92
2023-09-13T20:47:35.832Z,10.82
2023-09-13T20:52:38.844Z,10.83
2023-09-13T20:57:41.517Z,10.69
2023-09-13T21:02:44.203Z,10.71
2023-09-13T21:07:46.825Z,10.71
2023-09-13T21:12:49.567Z,10.63
2023-09-13T21:17:52.457Z,10.57
2023-09-13T21:22:55.075Z,10.49
2023-09-13T21:27:57.728Z,10.53
2023-09-13T21:33:00.608Z,10.55
2023-09-13T21:38:03.433Z,10.56
2023-09-13T21:43:06.074Z,10.70
2023-09-13T21:48:10.453Z,10.59
2023-09-13T21:53:16.897Z,10.68
2023-09-13T21:58:21.081Z,10.71
2023-09-13T22:03:25.901Z,10.69
2023-09-13T22:08:28.654Z,10.68
2023-09-13T22:13:31.383Z,10.45
2023-09-13T22:18:34.207Z,10.32
2023-09-13T22:23:37.017Z,10.40
2023-09-13T22:28:39.752Z,10.22
2023-09-13T22:33:42.483Z,10.14
2023-09-13T22:38:54.421Z,10.20
2023-09-13T22:44:05.306Z,10.26
2023-09-13T22:49:08.026Z,10.13
2023-09-13T22:54:10.723Z,10.18
2023-09-13T22:59:13.446Z,10.13
2023-09-13T23:04:16.354Z,10.06
2023-09-13T23:09:20.048Z,10.01
2023-09-13T23:14:23.748Z,10.06
2023-09-13T23:19:26.609Z,10.10
2023-09-13T23:24:30.789Z,10.16
2023-09-13T23:29:34.153Z,10.08
2023-09-13T23:34:36.888Z,10.05
2023-09-13T23:39:39.513Z,9.90
2023-09-13T23:44:42.187Z,10.03
2023-09-13T23:49:44.852Z,10.06
2023-09-13T23:54:47.560Z,10.08
2023-09-13T23:59:51.936Z,9.91
